createdAt,value
2023-01-19T00:00:48.088Z,18.65
2023-01-19T00:01:48.078Z,18.69
2023-01-19T00:02:48.142Z,18.72
2023-01-19T00:03:48.082Z,18.68
2023-01-19T00:04:48.077Z,18.69
2023-01-19T00:05:48.102Z,18.72
2023-01-19T00:06:48.090Z,18.71
2023-01-19T00:07:48.089Z,18.68
2023-01-19T00:08:48.093Z,18.69
2023-01-19T00:09:48.088Z,18.68
2023-01-19T00:10:48.152Z,18.73
2023-01-19T00:11:48.107Z,18.69
2023-01-19T00:13:48.127Z,18.71
2023-01-19T00:46:48.588Z,18.73
2023-01-19T00:47:48.596Z,18.66
2023-01-19T00:48:48.625Z,18.68
2023-01-19T00:49:48.625Z,18.69
2023-01-19T00:50:48.634Z,18.68
2023-01-19T00:51:48.647Z,18.66
2023-01-19T00:52:48.674Z,18.63
2023-01-19T00:53:48.695Z,18.71
2023-01-19T00:54:48.716Z,18.66
2023-01-19T00:55:48.715Z,18.68
2023-01-19T00:56:48.744Z,18.68
2023-01-19T00:57:48.742Z,18.71
2023-01-19T00:58:48.748Z,18.68
2023-01-19T00:59:48.757Z,18.69
2023-01-19T01:00:48.917Z,18.68
2023-01-19T01:01:48.898Z,18.71
2023-01-19T01:02:48.895Z,18.72
2023-01-19T01:03:48.819Z,18.75
2023-01-19T01:04:48.828Z,18.73
2023-01-19T01:05:48.830Z,18.78
2023-01-19T01:06:48.849Z,18.78
2023-01-19T01:07:48.872Z,18.76
2023-01-19T01:08:48.876Z,18.75
2023-01-19T01:09:48.918Z,18.76
2023-01-19T01:10:48.949Z,18.72
2023-01-19T01:11:48.955Z,18.73
2023-01-19T01:12:57.411Z,18.75
2023-01-19T01:13:49.977Z,18.73
2023-01-19T01:14:49.059Z,18.71
2023-01-19T01:15:48.984Z,18.73
2023-01-19T01:16:49.021Z,18.69
2023-01-19T01:17:48.993Z,18.72
2023-01-19T01:18:48.989Z,18.71
2023-01-19T01:19:48.993Z,18.68
2023-01-19T01:20:49.012Z,18.71
2023-01-19T01:21:48.989Z,18.69
2023-01-19T01:22:49.016Z,18.72
2023-01-19T01:23:49.023Z,18.72
2023-01-19T01:24:49.019Z,18.73
2023-01-19T01:25:49.036Z,18.72
2023-01-19T01:26:49.049Z,18.72
2023-01-19T01:27:49.037Z,18.69
2023-01-19T01:28:49.042Z,18.71
2023-01-19T01:29:49.047Z,18.71
2023-01-19T01:30:49.059Z,18.72
2023-01-19T01:31:49.135Z,18.71
2023-01-19T01:32:49.073Z,18.72
2023-01-19T01:33:49.083Z,18.73
2023-01-19T01:34:49.071Z,18.73
2023-01-19T01:35:49.085Z,18.71
2023-01-19T01:36:49.097Z,18.71
2023-01-19T01:37:49.113Z,18.72
2023-01-19T01:38:49.110Z,18.73
2023-01-19T01:39:49.138Z,18.71
2023-01-19T01:40:50.037Z,18.73
2023-01-19T01:41:49.139Z,18.72
2023-01-19T01:42:49.149Z,18.71
2023-01-19T01:43:49.160Z,18.75
2023-01-19T01:44:49.162Z,18.76
2023-01-19T01:45:49.317Z,18.73
2023-01-19T01:46:49.278Z,18.78
2023-01-19T01:47:49.223Z,18.76
2023-01-19T01:48:49.231Z,18.73
2023-01-19T01:49:49.224Z,18.75
2023-01-19T01:50:49.256Z,18.73
2023-01-19T01:51:49.266Z,18.76
2023-01-19T01:53:07.678Z,18.80
2023-01-19T01:53:50.295Z,18.73
2023-01-19T01:54:49.302Z,18.76
2023-01-19T01:55:49.295Z,18.75
2023-01-19T01:56:49.311Z,18.72
2023-01-19T01:57:49.301Z,18.72
2023-01-19T01:58:49.318Z,18.73
2023-01-19T01:59:49.317Z,18.78
2023-01-19T02:00:49.430Z,18.73
2023-01-19T02:01:49.418Z,18.79
2023-01-19T02:02:49.425Z,18.79
2023-01-19T02:03:49.428Z,18.73
2023-01-19T02:04:49.372Z,18.73
2023-01-19T02:05:49.380Z,18.71
2023-01-19T02:06:49.391Z,18.72
2023-01-19T02:07:49.399Z,18.73
2023-01-19T02:08:49.412Z,18.72
2023-01-19T02:09:49.408Z,18.71
2023-01-19T02:10:49.421Z,18.68
2023-01-19T02:11:49.429Z,18.72
2023-01-19T02:12:49.441Z,18.71
2023-01-19T02:13:49.454Z,18.69
2023-01-19T02:14:49.448Z,18.71
2023-01-19T02:15:49.515Z,18.69
2023-01-19T02:16:49.501Z,18.72
2023-01-19T02:17:49.487Z,18.72
2023-01-19T02:18:49.493Z,18.71
2023-01-19T02:19:49.476Z,18.71
2023-01-19T02:20:49.483Z,18.72
2023-01-19T02:21:49.500Z,18.68
2023-01-19T02:22:49.530Z,18.68
2023-01-19T02:23:50.541Z,18.72
2023-01-19T02:24:49.592Z,18.73
2023-01-19T02:25:49.622Z,18.73
2023-01-19T02:26:50.549Z,18.76
2023-01-19T02:27:49.669Z,18.72
2023-01-19T02:28:49.690Z,18.69
2023-01-19T02:29:49.775Z,18.72
2023-01-19T02:30:49.780Z,18.72
2023-01-19T02:31:49.756Z,18.69
2023-01-19T02:32:49.796Z,18.65
2023-01-19T02:33:49.791Z,18.66
2023-01-19T02:34:49.851Z,18.63
2023-01-19T02:35:49.816Z,18.58
2023-01-19T02:36:49.887Z,18.55
2023-01-19T02:37:49.919Z,18.51
2023-01-19T02:38:49.968Z,18.45
2023-01-19T02:39:50.083Z,18.45
2023-01-19T02:40:50.062Z,18.44
2023-01-19T02:41:50.240Z,18.48
2023-01-19T02:42:50.185Z,18.45
2023-01-19T02:43:50.237Z,18.48
2023-01-19T02:44:50.288Z,18.43
2023-01-19T02:45:50.427Z,18.48
2023-01-19T02:46:50.399Z,18.45
2023-01-19T02:47:50.485Z,18.47
2023-01-19T02:48:50.512Z,18.50
2023-01-19T02:49:50.560Z,18.47
2023-01-19T02:50:50.644Z,18.51
2023-01-19T02:51:50.695Z,18.51
2023-01-19T02:52:50.755Z,18.54
2023-01-19T02:53:50.899Z,18.51
2023-01-19T03:48:53.951Z,18.95
2023-01-19T03:49:54.005Z,18.87
2023-01-19T03:50:54.056Z,18.85
2023-01-19T03:51:54.128Z,18.80
2023-01-19T03:52:54.150Z,18.79
2023-01-19T03:53:54.202Z,18.76
2023-01-19T03:54:54.246Z,18.73
2023-01-19T03:55:54.375Z,18.75
2023-01-19T03:56:54.357Z,18.69
2023-01-19T03:57:54.411Z,18.66
2023-01-19T03:58:56.228Z,18.65
2023-01-19T03:59:54.540Z,18.59
2023-01-19T04:00:54.695Z,18.65
2023-01-19T04:01:54.791Z,18.61
2023-01-19T04:02:54.716Z,18.59
2023-01-19T04:03:54.767Z,18.62
2023-01-19T04:04:54.823Z,18.66
2023-01-19T04:05:54.855Z,18.69
2023-01-19T04:06:54.932Z,18.66
2023-01-19T04:07:54.978Z,18.63
2023-01-19T04:08:55.038Z,18.65
2023-01-19T04:09:55.093Z,18.61
2023-01-19T04:10:55.158Z,18.56
2023-01-19T04:11:55.216Z,18.54
2023-01-19T04:12:55.276Z,18.54
2023-01-19T04:13:55.337Z,18.52
2023-01-19T04:14:55.396Z,18.50
2023-01-19T04:15:55.488Z,18.50
2023-01-19T04:16:55.521Z,18.50
2023-01-19T04:17:55.587Z,18.51
2023-01-19T04:18:55.646Z,18.48
2023-01-19T04:19:55.710Z,18.50
2023-01-19T04:20:56.559Z,18.47
2023-01-19T04:21:55.812Z,18.47
2023-01-19T04:22:55.933Z,18.50
2023-01-19T04:23:55.938Z,18.47
2023-01-19T04:24:56.004Z,18.47
2023-01-19T04:25:56.039Z,18.51
2023-01-19T04:26:56.104Z,18.48
2023-01-19T04:27:56.229Z,18.45
2023-01-19T04:28:56.229Z,18.48
2023-01-19T04:29:56.342Z,18.50
2023-01-19T04:30:56.427Z,18.50
2023-01-19T04:31:56.411Z,18.50
2023-01-19T04:32:56.486Z,18.54
2023-01-19T04:33:56.516Z,18.54
2023-01-19T04:34:56.582Z,18.54
2023-01-19T04:35:56.691Z,18.51
2023-01-19T04:36:57.070Z,18.52
2023-01-19T04:37:56.762Z,18.51
2023-01-19T04:38:56.833Z,18.47
2023-01-19T04:39:56.890Z,18.47
2023-01-19T04:40:56.948Z,18.45
2023-01-19T04:41:57.003Z,18.48
2023-01-19T04:42:57.087Z,18.43
2023-01-19T04:43:58.057Z,18.45
2023-01-19T04:44:57.192Z,18.50
2023-01-19T04:45:57.291Z,18.43
2023-01-19T04:46:57.329Z,18.44
2023-01-19T04:47:57.392Z,18.45
2023-01-19T04:48:57.442Z,18.44
2023-01-19T04:49:57.502Z,18.45
2023-01-19T04:50:57.555Z,18.47
2023-01-19T04:51:57.616Z,18.48
2023-01-19T04:52:57.864Z,18.52
2023-01-19T04:53:57.812Z,18.55
2023-01-19T04:54:57.783Z,18.50
2023-01-19T04:55:57.856Z,18.52
2023-01-19T04:56:57.906Z,18.50
2023-01-19T04:57:57.967Z,18.48
2023-01-19T04:58:58.010Z,18.48
2023-01-19T04:59:58.068Z,18.48
2023-01-19T05:00:58.159Z,18.45
2023-01-19T05:01:58.230Z,18.43
2023-01-19T05:02:58.501Z,18.48
2023-01-19T05:03:58.345Z,18.47
2023-01-19T05:04:58.402Z,18.51
2023-01-19T05:05:58.473Z,18.45
2023-01-19T05:06:58.526Z,18.45
2023-01-19T05:07:58.598Z,18.43
2023-01-19T05:08:58.672Z,18.43
2023-01-19T05:09:58.758Z,18.41
2023-01-19T05:10:58.822Z,18.40
2023-01-19T05:11:58.900Z,18.38
2023-01-19T05:12:59.324Z,18.38
2023-01-19T05:13:59.038Z,18.40
2023-01-19T05:14:59.104Z,18.40
2023-01-19T05:15:59.228Z,18.44
2023-01-19T05:16:59.228Z,18.44
2023-01-19T05:17:59.289Z,18.41
2023-01-19T05:18:59.367Z,18.47
2023-01-19T05:19:59.517Z,18.43
2023-01-19T05:20:59.514Z,18.44
2023-01-19T05:21:59.589Z,18.44
2023-01-19T05:22:59.984Z,18.44
2023-01-19T05:23:59.688Z,18.44
2023-01-19T05:24:59.754Z,18.45
2023-01-19T05:26:00.114Z,18.43
2023-01-19T05:26:59.889Z,18.45
2023-01-19T05:27:59.961Z,18.38
2023-01-19T05:29:00.039Z,18.40
2023-01-19T05:30:00.124Z,18.43
2023-01-19T05:31:00.279Z,18.41
2023-01-19T05:32:00.243Z,18.38
2023-01-19T05:33:00.665Z,18.41
2023-01-19T05:34:00.379Z,18.38
2023-01-19T05:35:00.491Z,18.35
2023-01-19T05:36:00.517Z,18.37
2023-01-19T05:37:00.596Z,18.38
2023-01-19T05:38:00.676Z,18.41
2023-01-19T05:39:00.728Z,18.43
2023-01-19T05:40:00.800Z,18.41
2023-01-19T05:41:00.856Z,18.38
2023-01-19T05:42:00.927Z,18.38
2023-01-19T05:43:01.648Z,18.37
2023-01-19T05:44:01.055Z,18.41
2023-01-19T05:45:01.131Z,18.40
2023-01-19T05:46:01.212Z,18.37
2023-01-19T05:47:01.285Z,18.38
2023-01-19T05:48:01.312Z,18.40
2023-01-19T05:49:01.366Z,18.37
2023-01-19T05:50:01.443Z,18.37
2023-01-19T05:51:01.677Z,18.40
2023-01-19T05:52:01.595Z,18.40
2023-01-19T05:53:02.136Z,18.41
2023-01-19T05:54:01.693Z,18.38
2023-01-19T05:55:01.751Z,18.43
2023-01-19T05:56:01.818Z,18.38
2023-01-19T05:57:02.089Z,18.40
2023-01-19T05:58:01.939Z,18.34
2023-01-19T07:08:09.854Z,19.18
2023-01-19T07:09:09.834Z,19.20
2023-01-19T07:10:09.811Z,19.28
2023-01-19T07:11:22.212Z,19.25
2023-01-19T07:12:10.743Z,19.28
2023-01-19T07:13:09.711Z,19.32
2023-01-19T07:15:09.604Z,19.37
2023-01-19T07:16:11.326Z,19.45
2023-01-19T07:17:09.531Z,19.45
2023-01-19T07:18:09.479Z,19.51
2023-01-19T07:19:10.397Z,19.51
2023-01-19T07:20:09.394Z,19.57
2023-01-19T07:21:09.345Z,19.57
2023-01-19T07:22:09.306Z,19.77
2023-01-19T07:23:09.261Z,19.97
2023-01-19T07:24:09.203Z,20.13
2023-01-19T07:25:11.965Z,20.20
2023-01-19T07:26:10.905Z,20.42
2023-01-19T07:27:09.061Z,20.41
2023-01-19T07:29:08.942Z,20.44
2023-01-19T07:30:08.898Z,20.44
2023-01-19T07:31:09.006Z,20.49
2023-01-19T07:32:08.789Z,20.49
2023-01-19T07:33:08.722Z,20.45
2023-01-19T07:34:08.676Z,20.38
2023-01-19T07:35:08.603Z,20.41
2023-01-19T07:36:08.540Z,20.37
2023-01-19T07:37:08.475Z,20.34
2023-01-19T07:38:08.427Z,20.28
2023-01-19T07:39:08.352Z,20.25
2023-01-19T07:40:09.293Z,20.24
2023-01-19T07:41:08.235Z,20.34
2023-01-19T07:42:08.181Z,20.37
2023-01-19T07:43:08.101Z,20.38
2023-01-19T07:44:08.059Z,20.32
2023-01-19T07:45:07.986Z,20.34
2023-01-19T07:46:07.939Z,20.30
2023-01-19T07:47:07.867Z,20.32
2023-01-19T07:48:07.793Z,20.28
2023-01-19T07:49:07.739Z,20.31
2023-01-19T07:50:07.690Z,20.35
2023-01-19T07:51:07.650Z,20.38
2023-01-19T07:52:07.641Z,20.32
2023-01-19T07:53:07.534Z,20.24
2023-01-19T07:54:07.536Z,20.19
2023-01-19T07:55:07.488Z,20.14
2023-01-19T07:56:07.492Z,20.07
2023-01-19T07:57:07.485Z,20.07
2023-01-19T07:58:08.405Z,20.10
2023-01-19T07:59:07.453Z,20.09
2023-01-19T08:00:07.428Z,20.13
2023-01-19T08:01:07.513Z,20.13
2023-01-19T08:02:07.506Z,20.19
2023-01-19T08:03:07.436Z,20.19
2023-01-19T08:04:07.344Z,20.14
2023-01-19T08:05:07.327Z,20.16
2023-01-19T08:06:07.316Z,20.14
2023-01-19T08:07:07.937Z,20.17
2023-01-19T08:08:07.278Z,20.17
2023-01-19T08:10:07.242Z,20.23
2023-01-19T08:12:07.216Z,20.21
2023-01-19T08:14:08.126Z,20.27
2023-01-19T08:15:07.183Z,20.27
2023-01-19T08:16:07.194Z,20.30
2023-01-19T08:17:07.919Z,20.31
2023-01-19T08:18:07.112Z,20.37
2023-01-19T08:19:07.097Z,20.41
2023-01-19T08:20:07.090Z,20.44
2023-01-19T08:27:07.845Z,20.37
2023-01-19T08:28:06.937Z,20.34
2023-01-19T08:30:06.901Z,20.23
2023-01-19T08:31:19.469Z,20.20
2023-01-19T08:33:06.773Z,20.11
2023-01-19T08:34:06.720Z,20.10
2023-01-19T08:35:06.654Z,20.03
2023-01-19T08:36:06.592Z,19.99
2023-01-19T08:37:06.537Z,19.96
2023-01-19T08:38:06.493Z,19.90
2023-01-19T08:39:06.434Z,19.87
2023-01-19T08:40:06.399Z,19.85
2023-01-19T08:41:06.339Z,19.82
2023-01-19T08:42:06.273Z,19.79
2023-01-19T08:43:06.263Z,19.73
2023-01-19T08:44:06.279Z,19.68
2023-01-19T08:45:06.269Z,19.64
2023-01-19T08:46:06.336Z,19.64
2023-01-19T08:47:06.355Z,19.61
2023-01-19T08:48:06.927Z,19.54
2023-01-19T08:49:06.287Z,19.54
2023-01-19T08:50:06.293Z,19.48
2023-01-19T08:51:06.264Z,19.47
2023-01-19T08:52:06.278Z,19.42
2023-01-19T08:53:06.215Z,19.41
2023-01-19T08:54:06.210Z,19.37
2023-01-19T08:55:06.194Z,19.35
2023-01-19T08:56:06.164Z,19.31
2023-01-19T08:57:06.127Z,19.30
2023-01-19T08:58:06.106Z,19.25
2023-01-19T09:00:07.018Z,19.21
2023-01-19T09:01:05.993Z,19.23
2023-01-19T09:02:05.918Z,19.17
2023-01-19T09:03:06.224Z,19.13
2023-01-19T09:04:05.822Z,19.14
2023-01-19T09:05:05.823Z,19.11
2023-01-19T09:06:05.741Z,19.11
2023-01-19T09:08:06.453Z,19.10
2023-01-19T09:09:05.599Z,19.03
2023-01-19T09:10:05.528Z,19.00
2023-01-19T09:12:05.928Z,18.97
2023-01-19T09:20:05.945Z,19.15
2023-01-19T09:22:05.934Z,19.18
2023-01-19T15:04:05.524Z,18.78
2023-01-19T15:56:05.517Z,18.72
2023-01-19T15:57:05.539Z,18.75
2023-01-19T15:58:05.563Z,18.75
2023-01-19T15:59:05.586Z,18.71
2023-01-19T16:02:05.825Z,18.72
2023-01-19T16:03:05.637Z,18.69
2023-01-19T16:04:05.660Z,18.73
2023-01-19T16:05:05.649Z,18.72
2023-01-19T16:06:05.656Z,18.72
2023-01-19T16:24:05.851Z,18.71
2023-01-19T16:27:05.876Z,18.69
2023-01-19T16:28:05.906Z,18.71
2023-01-19T16:29:05.909Z,18.69
2023-01-19T16:30:05.919Z,18.69
2023-01-19T16:31:05.924Z,18.71
2023-01-19T16:32:05.945Z,18.66
2023-01-19T16:33:05.977Z,18.66
2023-01-19T16:34:05.987Z,18.63
2023-01-19T16:35:06.045Z,18.68
2023-01-19T16:36:05.997Z,18.68
2023-01-19T16:37:06.057Z,18.63
2023-01-19T16:38:06.038Z,18.68
2023-01-19T16:39:06.020Z,18.68
2023-01-19T16:40:06.041Z,18.68
2023-01-19T16:41:06.073Z,18.71
2023-01-19T16:42:06.071Z,18.71
2023-01-19T16:43:06.057Z,18.65
2023-01-19T16:44:06.071Z,18.69
2023-01-19T16:45:06.053Z,18.68
2023-01-19T16:46:06.085Z,18.71
2023-01-19T16:47:06.060Z,18.69
2023-01-19T16:48:06.070Z,18.72
2023-01-19T16:49:06.046Z,18.71
2023-01-19T16:50:06.030Z,18.72
2023-01-19T16:51:06.032Z,18.75
2023-01-19T16:52:06.039Z,18.73
2023-01-19T16:53:06.039Z,18.76
2023-01-19T16:54:06.038Z,18.75
2023-01-19T16:55:06.050Z,18.76
2023-01-19T16:56:06.016Z,18.76
2023-01-19T16:57:06.019Z,18.76
2023-01-19T16:58:06.017Z,18.75
2023-01-19T16:59:06.037Z,18.76
2023-01-19T17:00:06.027Z,18.73
2023-01-19T17:01:06.189Z,18.75
2023-01-19T17:02:06.068Z,18.73
2023-01-19T17:03:06.061Z,18.69
2023-01-19T17:04:06.033Z,18.71
2023-01-19T17:05:06.008Z,18.72
2023-01-19T17:06:06.020Z,18.69
2023-01-19T17:07:05.999Z,18.75
2023-01-19T17:08:06.041Z,18.71
2023-01-19T17:09:06.009Z,18.76
2023-01-19T17:10:06.009Z,18.73
2023-01-19T17:11:06.003Z,18.72
2023-01-19T17:12:05.980Z,18.76
2023-01-19T17:13:05.956Z,18.68
2023-01-19T17:14:05.959Z,18.72
2023-01-19T17:15:05.953Z,18.73
2023-01-19T17:16:05.930Z,18.71
2023-01-19T17:17:05.928Z,18.75
2023-01-19T17:18:05.924Z,18.75
2023-01-19T17:19:05.934Z,18.73
2023-01-19T17:20:05.958Z,18.75
2023-01-19T17:21:05.938Z,18.75
2023-01-19T17:22:05.946Z,18.75
2023-01-19T17:23:05.930Z,18.71
2023-01-19T17:24:05.943Z,18.69
2023-01-19T17:25:05.932Z,18.69
2023-01-19T17:26:05.919Z,18.71
2023-01-19T17:27:05.920Z,18.73
2023-01-19T17:28:05.919Z,18.66
2023-01-19T17:29:05.925Z,18.71
2023-01-19T17:30:06.566Z,18.76
2023-01-19T17:31:06.000Z,18.73
2023-01-19T17:32:05.912Z,18.72
2023-01-19T17:33:05.918Z,18.73
2023-01-19T17:34:05.929Z,18.72
2023-01-19T17:37:05.943Z,18.69
2023-01-19T17:38:05.991Z,18.71
2023-01-19T17:39:05.935Z,18.69
2023-01-19T17:40:06.004Z,18.68
2023-01-19T17:41:05.937Z,18.71
2023-01-19T17:42:05.970Z,18.71
2023-01-19T17:48:05.963Z,18.68
2023-01-19T17:49:05.963Z,18.66
2023-01-19T17:50:05.953Z,18.65
2023-01-19T17:51:05.966Z,18.69
2023-01-19T17:52:05.967Z,18.66
2023-01-19T17:53:05.972Z,18.66
2023-01-19T17:54:06.571Z,18.65
2023-01-19T17:55:05.915Z,18.65
2023-01-19T17:56:05.912Z,18.63
2023-01-19T17:57:06.071Z,18.61
2023-01-19T17:58:05.889Z,18.59
2023-01-19T17:59:05.860Z,18.61
2023-01-19T18:00:05.837Z,18.65
2023-01-19T18:01:05.920Z,18.63
2023-01-19T18:02:05.858Z,18.63
2023-01-19T18:03:05.826Z,18.65
2023-01-19T18:04:05.835Z,18.66
2023-01-19T18:05:05.828Z,18.68
2023-01-19T18:06:05.823Z,18.62
2023-01-19T18:07:05.822Z,18.65
2023-01-19T18:08:05.828Z,18.62
2023-01-19T18:09:05.812Z,18.65
2023-01-19T18:10:05.834Z,18.61
2023-01-19T18:11:05.905Z,18.63
2023-01-19T18:12:05.851Z,18.61
2023-01-19T18:13:05.861Z,18.62
2023-01-19T18:14:05.871Z,18.68
2023-01-19T18:15:05.868Z,18.63
2023-01-19T18:16:05.912Z,18.63
2023-01-19T18:17:05.885Z,18.59
2023-01-19T18:18:05.892Z,18.66
2023-01-19T18:19:05.910Z,18.62
2023-01-19T18:20:05.935Z,18.65
2023-01-19T18:21:05.929Z,18.63
2023-01-19T18:22:05.943Z,18.63
2023-01-19T18:23:05.956Z,18.65
2023-01-19T18:24:05.986Z,18.68
2023-01-19T18:25:06.012Z,18.63
2023-01-19T18:26:06.000Z,18.65
2023-01-19T18:27:06.045Z,18.59
2023-01-19T18:28:06.036Z,18.62
2023-01-19T18:29:06.054Z,18.61
2023-01-19T18:30:06.133Z,18.58
2023-01-19T18:31:06.254Z,18.61
2023-01-19T18:32:06.087Z,18.61
2023-01-19T18:33:06.123Z,18.62
2023-01-19T18:34:06.133Z,18.62
2023-01-19T18:35:06.158Z,18.59
2023-01-19T18:36:06.165Z,18.62
2023-01-19T18:37:06.165Z,18.61
2023-01-19T18:38:06.176Z,18.59
2023-01-19T18:39:06.208Z,18.59
2023-01-19T18:40:06.201Z,18.59
2023-01-19T18:41:07.000Z,18.62
2023-01-19T18:42:06.227Z,18.62
2023-01-19T18:43:06.239Z,18.66
2023-01-19T18:44:06.262Z,18.59
2023-01-19T18:45:06.244Z,18.63
2023-01-19T18:46:06.307Z,18.62
2023-01-19T18:47:06.287Z,18.62
2023-01-19T18:48:06.297Z,18.61
2023-01-19T18:49:06.368Z,18.61
2023-01-19T18:50:06.323Z,18.59
2023-01-19T18:51:06.312Z,18.61
2023-01-19T18:52:06.353Z,18.61
2023-01-19T18:53:06.367Z,18.61
2023-01-19T18:54:06.347Z,18.62
2023-01-19T18:55:06.369Z,18.62
2023-01-19T18:56:06.357Z,18.63
2023-01-19T18:57:06.396Z,18.59
2023-01-19T18:58:06.379Z,18.63
2023-01-19T18:59:06.365Z,18.59
2023-01-19T19:00:06.389Z,18.61
2023-01-19T19:01:06.472Z,18.59
2023-01-19T19:02:06.457Z,18.62
2023-01-19T19:03:06.426Z,18.59
2023-01-19T19:04:06.432Z,18.58
2023-01-19T19:05:06.424Z,18.62
2023-01-19T19:06:06.510Z,18.58
2023-01-19T19:07:06.421Z,18.56
2023-01-19T19:08:06.490Z,18.56
2023-01-19T19:09:06.443Z,18.59
2023-01-19T19:10:06.465Z,18.56
2023-01-19T19:11:06.452Z,18.56
2023-01-19T19:12:06.472Z,18.55
2023-01-19T19:13:06.534Z,18.58
2023-01-19T19:14:06.481Z,18.59
2023-01-19T19:15:06.463Z,18.58
2023-01-19T19:16:06.591Z,18.55
2023-01-19T19:17:06.486Z,18.56
2023-01-19T19:18:06.525Z,18.56
2023-01-19T19:19:06.446Z,18.58
2023-01-19T19:20:06.426Z,18.58
2023-01-19T19:21:06.444Z,18.56
2023-01-19T19:22:06.366Z,18.58
2023-01-19T19:23:06.338Z,18.58
2023-01-19T19:24:06.330Z,18.59
2023-01-19T19:25:07.087Z,18.59
2023-01-19T19:26:06.312Z,18.56
2023-01-19T19:27:07.094Z,18.56
2023-01-19T19:28:06.213Z,18.61
2023-01-19T19:29:06.196Z,18.58
2023-01-19T19:30:06.184Z,18.55
2023-01-19T19:31:06.310Z,18.58
2023-01-19T19:32:06.076Z,18.59
2023-01-19T19:33:06.066Z,18.55
2023-01-19T19:34:06.047Z,18.59
2023-01-19T19:35:06.007Z,18.55
2023-01-19T19:36:05.995Z,18.52
2023-01-19T19:37:05.962Z,18.54
2023-01-19T19:38:05.953Z,18.56
2023-01-19T19:39:05.956Z,18.55
2023-01-19T19:40:05.941Z,18.54
2023-01-19T19:41:05.905Z,18.55
2023-01-19T19:42:05.924Z,18.56
2023-01-19T19:43:05.904Z,18.55
2023-01-19T19:44:05.905Z,18.54
2023-01-19T19:45:05.892Z,18.55
2023-01-19T19:46:06.042Z,18.54
2023-01-19T19:47:05.911Z,18.54
2023-01-19T19:48:05.913Z,18.55
2023-01-19T19:49:05.921Z,18.55
2023-01-19T19:50:05.978Z,18.55
2023-01-19T19:51:17.038Z,18.56
2023-01-19T19:52:06.802Z,18.52
2023-01-19T19:53:05.748Z,18.54
2023-01-19T19:54:05.699Z,18.52
2023-01-19T19:55:05.659Z,18.54
2023-01-19T19:56:05.574Z,18.54
2023-01-19T19:57:05.520Z,18.52
2023-01-19T20:01:06.328Z,18.54
2023-01-19T20:11:05.605Z,18.54
2023-01-19T23:55:56.437Z,18.43
2023-01-19T23:56:56.389Z,18.41
2023-01-19T23:57:56.329Z,18.40
2023-01-19T23:58:56.357Z,18.37
2023-01-19T23:59:56.229Z,18.40
